SKBO/BOG METAR and TAF weather

Enter ICAO airport designator
Station Type Date Time Source
SKBO METAR 2021/02/24 18:00 UTC NOAA

SKBO 241800Z 04007KT 340V090 9999 BKN023TCU 18/10 Q1026 NOSIG RMK A3030


Station Type Date Time Source
SKBO Decoded METAR 2021/02/24 18:00 UTC NOAA

Bogota / Eldorado, Colombia (SKBO) 04-43N 074-09W 2548M
Feb 24, 2021 - 01:00 PM EST / 2021.02.24 1800 UTC
Wind: from the NE (040 degrees) at 8 MPH (7 KT) (direction variable):0
Visibility: greater than 7 mile(s):0
Sky conditions: mostly cloudy
Weather: Towering cumulus clouds observed
Temperature: 64 F (18 C)
Dew Point: 50 F (10 C)
Relative Humidity: 59%
Pressure (altimeter): 30.30 in. Hg (1026 hPa)
ob: SKBO 241800Z 04007KT 340V090 9999 BKN023TCU 18/10 Q1026 NOSIG RMK A3030
cycle: 18

Station Type Date Time Source
SKBO TAF 2021/02/24 18:44 UTC NOAA

TAF SKBO 241630Z 2418/2518 14010KT 9999 BKN023
BECMG 2501/2503 VRB03KT SCT017 SCT070 TX20/2418Z TN08/2509Z

Example: see airport list